Time;durP1;ratioP1;P1;durP2;ratioP2;P2;SDS_P1;SDS_P2;PMS_P1;PMS_P2;Temp;Humidity;BMP_temperature;BMP_pressure;BME280_temperature;BME280_humidity;BME280_pressure;Samples;Min_cycle;Max_cycle;Signal;HPM_P1;HPM_P2
2023/09/24 00:00:20;;;;;;;4.68;2.53;;;;;11.20;99308.00;;;;5054374;28;20049;-67
2023/09/24 00:02:49;;;;;;;6.72;3.00;;;;;11.20;99306.00;;;;5053032;28;20045;-65
2023/09/24 00:05:16;;;;;;;6.05;3.33;;;;;11.20;99305.00;;;;5053861;28;20116;-66
2023/09/24 00:07:43;;;;;;;8.35;2.92;;;;;11.20;99313.00;;;;5054236;28;20041;-66
2023/09/24 00:10:10;;;;;;;4.50;2.65;;;;;11.10;99313.00;;;;5054150;28;20123;-66
2023/09/24 00:12:38;;;;;;;6.43;2.58;;;;;11.10;99314.00;;;;5052655;28;20053;-66
2023/09/24 00:15:07;;;;;;;3.78;2.53;;;;;10.90;99316.00;;;;5053591;28;20643;-66
2023/09/24 00:17:34;;;;;;;4.63;3.05;;;;;11.00;99323.00;;;;5053844;28;20170;-66
2023/09/24 00:20:01;;;;;;;4.90;2.45;;;;;10.90;99318.00;;;;5054056;28;20091;-66
2023/09/24 00:22:27;;;;;;;6.95;2.60;;;;;10.80;99321.00;;;;5053827;28;20064;-66
2023/09/24 00:24:54;;;;;;;7.57;2.65;;;;;10.80;99330.00;;;;5051986;28;20470;-68
2023/09/24 00:27:20;;;;;;;4.28;2.50;;;;;10.70;99322.00;;;;5054241;28;20055;-68
2023/09/24 00:29:47;;;;;;;3.83;2.40;;;;;10.60;99334.00;;;;5052959;28;20147;-68
2023/09/24 00:32:14;;;;;;;5.45;2.63;;;;;10.60;99326.00;;;;5052777;28;20124;-68
2023/09/24 00:34:41;;;;;;;5.32;2.70;;;;;10.60;99321.00;;;;5051924;28;20045;-68
2023/09/24 00:37:08;;;;;;;6.10;2.47;;;;;10.40;99319.00;;;;5053658;28;20140;-67
2023/09/24 00:39:36;;;;;;;4.45;2.63;;;;;10.40;99322.00;;;;5052202;28;20041;-68
2023/09/24 00:42:05;;;;;;;4.18;2.20;;;;;10.30;99312.00;;;;5035964;28;20560;-67
2023/09/24 00:44:32;;;;;;;3.40;2.60;;;;;10.30;99315.00;;;;5035299;28;20041;-67
2023/09/24 00:46:59;;;;;;;4.88;3.00;;;;;10.30;99323.00;;;;5051867;28;20041;-67
2023/09/24 00:49:27;;;;;;;6.57;3.08;;;;;10.30;99320.00;;;;5052011;28;20139;-66
2023/09/24 00:51:54;;;;;;;6.35;3.08;;;;;10.30;99323.00;;;;5052063;28;20041;-67
2023/09/24 00:54:21;;;;;;;6.60;2.45;;;;;10.30;99322.00;;;;5050506;28;20045;-68
2023/09/24 00:56:49;;;;;;;5.63;2.50;;;;;10.30;99322.00;;;;5052107;28;20053;-68
2023/09/24 00:59:17;;;;;;;5.13;2.92;;;;;10.30;99319.00;;;;5053357;28;20045;-67
2023/09/24 01:01:44;;;;;;;4.45;2.63;;;;;10.20;99320.00;;;;5053185;28;20572;-68
2023/09/24 01:04:12;;;;;;;4.07;2.90;;;;;10.20;99323.00;;;;5051244;28;20445;-68
2023/09/24 01:06:39;;;;;;;3.53;2.20;;;;;10.20;99323.00;;;;5051927;28;20096;-67
2023/09/24 01:09:09;;;;;;;4.80;2.72;;;;;10.20;99317.00;;;;5052954;28;20126;-67
2023/09/24 01:11:38;;;;;;;3.70;2.22;;;;;10.20;99323.00;;;;5051492;28;20049;-68
2023/09/24 01:14:05;;;;;;;4.53;2.20;;;;;10.10;99319.00;;;;5052300;28;20536;-68
2023/09/24 01:16:37;;;;;;;3.80;2.28;;;;;10.10;99316.00;;;;5051019;28;20139;-68
2023/09/24 01:19:07;;;;;;;4.65;2.40;;;;;10.00;99322.00;;;;5052761;28;20478;-68
2023/09/24 01:21:36;;;;;;;6.45;2.30;;;;;9.90;99314.00;;;;5051405;28;20456;-68
2023/09/24 01:24:04;;;;;;;5.80;2.70;;;;;9.90;99304.00;;;;5052511;28;20087;-68
2023/09/24 01:26:31;;;;;;;6.22;2.25;;;;;9.90;99314.00;;;;5051395;28;20095;-69
2023/09/24 01:28:58;;;;;;;4.47;2.42;;;;;9.90;99315.00;;;;5052548;28;20045;-68
2023/09/24 01:31:26;;;;;;;4.22;2.58;;;;;9.80;99318.00;;;;5051113;28;20656;-68
2023/09/24 01:33:53;;;;;;;3.72;2.53;;;;;9.80;99321.00;;;;5050547;28;20122;-68
2023/09/24 01:36:21;;;;;;;6.68;2.60;;;;;9.80;99323.00;;;;5052368;28;20041;-68
2023/09/24 01:38:48;;;;;;;3.53;2.10;;;;;9.70;99323.00;;;;5034901;28;20059;-67
2023/09/24 01:41:15;;;;;;;3.63;2.20;;;;;9.80;99323.00;;;;5051080;28;20045;-68
2023/09/24 01:43:45;;;;;;;7.15;2.72;;;;;9.90;99326.00;;;;5050698;28;20052;-68
2023/09/24 01:46:15;;;;;;;3.65;2.35;;;;;9.80;99324.00;;;;5050964;28;20040;-68
2023/09/24 01:48:49;;;;;;;5.05;2.75;;;;;9.90;99326.00;;;;5052478;28;20051;-68
2023/09/24 01:51:16;;;;;;;4.20;2.13;;;;;9.90;99324.00;;;;5052343;28;20090;-68
2023/09/24 01:53:42;;;;;;;3.97;2.13;;;;;10.00;99327.00;;;;5050371;28;20080;-68
2023/09/24 01:56:09;;;;;;;3.63;1.90;;;;;10.00;99332.00;;;;5052111;28;20090;-68
2023/09/24 01:58:39;;;;;;;5.07;2.40;;;;;9.90;99328.00;;;;5051067;28;20148;-68
2023/09/24 02:01:07;;;;;;;5.30;2.13;;;;;9.90;99327.00;;;;5034070;28;20045;-68
2023/09/24 02:03:35;;;;;;;2.45;1.90;;;;;9.90;99326.00;;;;5050086;28;20458;-68
2023/09/24 02:06:03;;;;;;;5.13;2.28;;;;;9.80;99326.00;;;;5050748;28;20052;-68
2023/09/24 02:08:30;;;;;;;3.28;2.33;;;;;9.70;99329.00;;;;5052125;28;20047;-68
2023/09/24 02:10:58;;;;;;;3.08;2.15;;;;;9.70;99323.00;;;;5050609;28;20048;-68
2023/09/24 02:13:26;;;;;;;5.25;2.00;;;;;9.80;99324.00;;;;5050423;28;20041;-68
2023/09/24 02:15:53;;;;;;;4.70;2.20;;;;;9.70;99323.00;;;;5050252;28;20084;-68
2023/09/24 02:18:19;;;;;;;4.00;2.10;;;;;9.70;99328.00;;;;5052016;28;20041;-68
2023/09/24 02:20:48;;;;;;;7.22;2.55;;;;;9.60;99322.00;;;;5051971;28;20405;-68
2023/09/24 02:23:15;;;;;;;4.03;2.10;;;;;9.60;99326.00;;;;5050637;28;20049;-68
2023/09/24 02:25:48;;;;;;;4.38;2.20;;;;;9.70;99326.00;;;;5051091;28;20037;-68
2023/09/24 02:28:18;;;;;;;3.15;2.20;;;;;9.80;99344.00;;;;5050605;28;20053;-68
2023/09/24 02:30:46;;;;;;;3.58;2.13;;;;;9.90;99335.00;;;;5050545;28;20514;-68
2023/09/24 02:33:13;;;;;;;2.53;1.92;;;;;9.80;99343.00;;;;5051859;28;20041;-68
2023/09/24 02:35:40;;;;;;;3.25;1.90;;;;;9.80;99335.00;;;;5050026;28;20107;-68
2023/09/24 02:38:08;;;;;;;4.22;2.15;;;;;9.90;99340.00;;;;5050470;28;20497;-66
2023/09/24 02:40:35;;;;;;;6.18;2.22;;;;;9.90;99342.00;;;;5051607;28;20041;-67
2023/09/24 02:43:03;;;;;;;6.00;2.05;;;;;9.90;99339.00;;;;5051587;28;20041;-67
2023/09/24 02:45:30;;;;;;;3.42;2.30;;;;;9.90;99337.00;;;;5049704;28;20048;-66
2023/09/24 02:47:57;;;;;;;2.65;2.20;;;;;9.90;99341.00;;;;5051667;28;20090;-67
2023/09/24 02:50:27;;;;;;;2.90;2.20;;;;;9.80;99340.00;;;;5051845;28;20494;-66
2023/09/24 02:52:55;;;;;;;5.28;2.42;;;;;9.80;99341.00;;;;5051622;28;20124;-67
2023/09/24 02:55:23;;;;;;;5.05;2.30;;;;;9.80;99343.00;;;;5033625;28;20041;-66
2023/09/24 02:57:53;;;;;;;3.65;2.10;;;;;9.90;99346.00;;;;5051052;28;20136;-67
2023/09/24 03:00:26;;;;;;;2.65;1.95;;;;;9.80;99350.00;;;;5052104;28;20556;-67
2023/09/24 03:02:59;;;;;;;4.18;1.88;;;;;9.70;99347.00;;;;5050208;28;20502;-66
2023/09/24 03:05:28;;;;;;;3.03;1.90;;;;;9.70;99349.00;;;;5049469;28;20410;-67
2023/09/24 03:07:59;;;;;;;3.22;2.03;;;;;9.70;99361.00;;;;5050189;28;20457;-67
2023/09/24 03:10:26;;;;;;;2.97;1.90;;;;;9.70;99355.00;;;;5051482;28;20051;-67
2023/09/24 03:12:54;;;;;;;2.78;2.13;;;;;9.80;99362.00;;;;5050208;28;20155;-67
2023/09/24 03:15:21;;;;;;;4.03;2.03;;;;;9.70;99358.00;;;;5049700;28;20114;-66
2023/09/24 03:17:47;;;;;;;4.03;2.20;;;;;9.60;99365.00;;;;5053350;28;20493;-66
2023/09/24 03:20:15;;;;;;;4.03;2.17;;;;;9.60;99367.00;;;;5053971;28;20141;-67
2023/09/24 03:22:46;;;;;;;3.22;2.30;;;;;9.70;99371.00;;;;5053707;28;20041;-67
2023/09/24 03:25:20;;;;;;;5.13;2.90;;;;;9.70;99370.00;;;;5053058;28;20053;-68
2023/09/24 03:27:51;;;;;;;;;;;;;9.70;99372.00;;;;5054036;28;20494;-68
2023/09/24 03:30:18;;;;;;;4.03;2.10;;;;;9.70;99378.00;;;;5053611;28;19959;-67
2023/09/24 03:32:46;;;;;;;2.47;2.00;;;;;9.70;99377.00;;;;5037005;28;20049;-67
2023/09/24 03:35:17;;;;;;;4.35;2.05;;;;;9.70;99372.00;;;;5052865;28;20421;-67
2023/09/24 03:37:46;;;;;;;3.08;1.98;;;;;9.60;99389.00;;;;5053422;28;20421;-67
2023/09/24 03:40:18;;;;;;;3.42;2.20;;;;;9.60;99382.00;;;;5054724;28;20072;-67
2023/09/24 03:42:45;;;;;;;2.88;1.95;;;;;9.60;99386.00;;;;5053083;28;20521;-68
2023/09/24 03:45:13;;;;;;;3.58;1.85;;;;;9.60;99389.00;;;;5052442;28;20063;-67
2023/09/24 03:47:41;;;;;;;4.18;2.17;;;;;9.60;99388.00;;;;5053158;28;20056;-67
2023/09/24 03:50:17;;;;;;;6.43;2.88;;;;;9.60;99396.00;;;;5053123;28;20053;-67
2023/09/24 03:52:48;;;;;;;14.05;3.58;;;;;9.60;99391.00;;;;5053181;28;20049;-67
2023/09/24 03:55:16;;;;;;;11.45;3.90;;;;;9.60;99393.00;;;;5035979;28;20047;-66
2023/09/24 03:57:44;;;;;;;31.80;4.70;;;;;9.60;99388.00;;;;5053001;28;20413;-67
2023/09/24 04:00:15;;;;;;;7.22;3.78;;;;;9.50;99385.00;;;;5052858;28;20055;-67
2023/09/24 04:02:47;;;;;;;10.60;3.72;;;;;9.50;99398.00;;;;5052820;28;20055;-67
2023/09/24 04:05:20;;;;;;;17.90;4.07;;;;;9.60;99392.00;;;;5052396;28;20390;-67
2023/09/24 04:07:52;;;;;;;12.25;3.83;;;;;9.60;99397.00;;;;5052928;28;20084;-67
2023/09/24 04:10:21;;;;;;;23.40;4.65;;;;;9.50;99402.00;;;;5052668;28;20049;-66
2023/09/24 04:12:52;;;;;;;10.07;3.95;;;;;9.30;99408.00;;;;5053949;28;20539;-67
2023/09/24 04:15:21;;;;;;;18.63;4.85;;;;;9.10;99408.00;;;;5053261;28;20041;-66
2023/09/24 04:17:49;;;;;;;14.02;3.95;;;;;9.00;99410.00;;;;5053915;28;20040;-67
2023/09/24 04:20:17;;;;;;;11.27;3.80;;;;;8.90;99414.00;;;;5053917;28;20049;-67
2023/09/24 04:22:44;;;;;;;6.38;3.33;;;;;8.80;99402.00;;;;5053704;28;20068;-66
2023/09/24 04:25:14;;;;;;;9.10;3.70;;;;;8.80;99416.00;;;;5051827;28;20041;-66
2023/09/24 04:27:44;;;;;;;5.78;2.75;;;;;8.80;99415.00;;;;5052380;28;20049;-66
2023/09/24 04:30:16;;;;;;;4.40;1.98;;;;;8.70;99417.00;;;;5053523;28;20051;-66
2023/09/24 04:32:48;;;;;;;2.75;2.30;;;;;8.80;99417.00;;;;5053647;28;20048;-66
2023/09/24 04:35:19;;;;;;;3.53;1.92;;;;;8.70;99419.00;;;;5053037;28;20049;-66
2023/09/24 04:37:50;;;;;;;6.55;2.30;;;;;8.60;99420.00;;;;5053466;28;20045;-66
2023/09/24 04:40:18;;;;;;;3.13;2.08;;;;;8.70;99425.00;;;;5035708;28;20056;-68
2023/09/24 04:42:45;;;;;;;5.38;2.92;;;;;8.70;99434.00;;;;5052092;28;20505;-66
2023/09/24 04:45:14;;;;;;;4.60;2.47;;;;;8.70;99439.00;;;;5052809;28;20444;-66
2023/09/24 04:47:42;;;;;;;4.43;2.20;;;;;8.70;99433.00;;;;5051906;28;20063;-66
2023/09/24 04:50:12;;;;;;;3.45;2.30;;;;;8.60;99437.00;;;;5051903;28;20094;-66
2023/09/24 04:52:41;;;;;;;4.00;2.13;;;;;8.60;99433.00;;;;5051993;28;20141;-66
2023/09/24 04:55:09;;;;;;;8.20;2.00;;;;;8.50;99441.00;;;;5051218;28;20114;-66
2023/09/24 04:57:36;;;;;;;4.05;2.40;;;;;8.60;99446.00;;;;5035320;28;20421;-66
2023/09/24 05:00:03;;;;;;;3.33;2.42;;;;;8.70;99445.00;;;;5051864;28;20091;-65
2023/09/24 05:02:30;;;;;;;4.07;2.88;;;;;8.70;99459.00;;;;5051765;28;20037;-66
2023/09/24 05:04:56;;;;;;;4.63;3.22;;;;;8.70;99460.00;;;;5051078;28;20041;-66
2023/09/24 05:07:23;;;;;;;3.00;2.65;;;;;8.70;99463.00;;;;5051607;28;20494;-65
2023/09/24 05:09:52;;;;;;;4.22;2.40;;;;;8.70;99461.00;;;;5051730;28;20403;-65
2023/09/24 05:12:18;;;;;;;7.35;3.45;;;;;8.60;99466.00;;;;5052774;28;20064;-66
2023/09/24 05:14:45;;;;;;;5.07;2.88;;;;;8.50;99472.00;;;;5052292;28;20043;-66
2023/09/24 05:17:12;;;;;;;6.30;3.53;;;;;8.40;99471.00;;;;5052582;28;20052;-65
2023/09/24 05:19:38;;;;;;;5.55;3.15;;;;;8.40;99473.00;;;;5051393;28;20501;-66
2023/09/24 05:22:07;;;;;;;6.38;3.42;;;;;8.40;99467.00;;;;5051457;28;20080;-65
2023/09/24 05:24:34;;;;;;;7.32;2.97;;;;;8.40;99476.00;;;;5051974;28;20033;-65
2023/09/24 05:27:01;;;;;;;5.97;3.00;;;;;8.30;99475.00;;;;5052419;28;20047;-66
2023/09/24 05:29:27;;;;;;;4.90;3.13;;;;;8.30;99476.00;;;;5052607;28;20049;-65
2023/09/24 05:31:55;;;;;;;4.95;3.50;;;;;8.30;99475.00;;;;5051085;28;20124;-68
2023/09/24 05:34:22;;;;;;;6.45;3.75;;;;;8.20;99476.00;;;;5051931;28;20037;-65
2023/09/24 05:36:49;;;;;;;6.50;3.53;;;;;8.20;99472.00;;;;5052364;28;20049;-66
2023/09/24 05:39:16;;;;;;;7.05;3.15;;;;;8.30;99482.00;;;;5052008;28;20456;-66
2023/09/24 05:41:43;;;;;;;4.50;3.17;;;;;8.30;99484.00;;;;5050863;28;20478;-66
2023/09/24 05:44:10;;;;;;;5.00;2.80;;;;;8.40;99494.00;;;;5051535;28;20040;-66
2023/09/24 05:46:36;;;;;;;5.80;2.85;;;;;8.50;99485.00;;;;5052062;28;20051;-65
2023/09/24 05:49:05;;;;;;;7.40;4.45;;;;;8.60;99487.00;;;;5052125;28;20063;-66
2023/09/24 05:51:31;;;;;;;7.90;4.60;;;;;8.60;99493.00;;;;5051035;28;20052;-66
2023/09/24 05:53:58;;;;;;;5.88;4.25;;;;;8.60;99493.00;;;;5050315;28;20464;-65
2023/09/24 05:56:25;;;;;;;6.53;3.17;;;;;8.60;99498.00;;;;5050712;28;20044;-67
2023/09/24 05:58:51;;;;;;;3.88;2.90;;;;;8.50;99495.00;;;;5050853;28;20052;-66
2023/09/24 06:01:18;;;;;;;4.38;3.10;;;;;8.50;99503.00;;;;5050802;28;20119;-65
2023/09/24 06:03:45;;;;;;;3.50;2.75;;;;;8.60;99514.00;;;;5050095;28;20544;-66
2023/09/24 06:06:12;;;;;;;3.97;2.90;;;;;8.70;99521.00;;;;5050518;28;20067;-66
2023/09/24 06:08:39;;;;;;;4.40;3.28;;;;;8.90;99518.00;;;;5050591;28;20052;-66
2023/09/24 06:11:08;;;;;;;7.28;4.28;;;;;9.00;99526.00;;;;5051840;28;20394;-66
2023/09/24 06:13:34;;;;;;;5.05;3.28;;;;;9.00;99527.00;;;;5049944;28;20056;-66
2023/09/24 06:16:02;;;;;;;5.85;3.00;;;;;9.20;99537.00;;;;5051619;28;20063;-66
2023/09/24 06:18:29;;;;;;;4.53;2.65;;;;;9.20;99535.00;;;;5050616;28;20048;-66
2023/09/24 06:20:56;;;;;;;3.67;2.95;;;;;9.30;99546.00;;;;5050698;28;20179;-67
2023/09/24 06:23:23;;;;;;;5.93;2.58;;;;;9.40;99536.00;;;;5033820;28;20067;-66
2023/09/24 06:26:00;;;;;;;3.67;2.40;;;;;9.40;99537.00;;;;5050201;28;20080;-66
2023/09/24 06:28:27;;;;;;;3.65;2.78;;;;;9.40;99540.00;;;;5050822;28;20053;-66
2023/09/24 06:31:05;;;;;;;3.03;2.25;;;;;9.50;99537.00;;;;5051706;28;20116;-65
2023/09/24 06:33:31;;;;;;;4.22;2.83;;;;;9.60;99540.00;;;;5051277;28;20049;-66
2023/09/24 06:36:02;;;;;;;4.50;2.40;;;;;9.70;99546.00;;;;5033821;28;20049;-66
2023/09/24 06:38:29;;;;;;;3.45;2.50;;;;;9.80;99541.00;;;;5050675;28;20553;-66
2023/09/24 06:41:00;;;;;;;3.83;2.50;;;;;9.90;99541.00;;;;5050428;28;20106;-66
2023/09/24 06:43:26;;;;;;;5.50;2.80;;;;;10.00;99543.00;;;;5050084;28;20448;-68
2023/09/24 06:45:54;;;;;;;4.57;2.72;;;;;10.10;99535.00;;;;5050110;28;20087;-66
2023/09/24 06:48:22;;;;;;;7.38;3.67;;;;;10.10;99543.00;;;;5033892;28;20055;-66
2023/09/24 06:50:49;;;;;;;5.18;3.65;;;;;10.20;99555.00;;;;5052039;28;20037;-66
2023/09/24 06:53:17;;;;;;;4.45;2.80;;;;;10.30;99550.00;;;;5054230;28;20382;-65
2023/09/24 06:55:43;;;;;;;4.93;3.30;;;;;10.50;99551.00;;;;5054725;28;20119;-66
2023/09/24 06:58:14;;;;;;;3.35;2.85;;;;;10.50;99550.00;;;;5054222;28;20068;-66
2023/09/24 07:00:41;;;;;;;21.90;12.05;;;;;10.30;99548.00;;;;5053989;28;20052;-68
2023/09/24 07:03:07;;;;;;;8.52;4.97;;;;;10.30;99552.00;;;;5055238;28;20559;-66
2023/09/24 07:05:36;;;;;;;12.88;7.18;;;;;10.50;99543.00;;;;5036811;28;20461;-66
2023/09/24 07:08:04;;;;;;;4.40;3.08;;;;;10.70;99547.00;;;;5053727;28;20045;-67
2023/09/24 07:10:30;;;;;;;34.05;17.38;;;;;10.80;99553.00;;;;5054011;28;20057;-66
2023/09/24 07:12:57;;;;;;;39.83;20.48;;;;;10.80;99545.00;;;;5055100;28;20083;-66
2023/09/24 07:15:23;;;;;;;16.73;7.80;;;;;10.70;99550.00;;;;5054383;28;20406;-66
2023/09/24 07:17:50;;;;;;;13.77;6.63;;;;;10.80;99553.00;;;;5054986;28;20076;-64
2023/09/24 07:20:18;;;;;;;6.60;4.13;;;;;10.90;99548.00;;;;5054338;28;20401;-64
2023/09/24 07:22:44;;;;;;;5.75;3.33;;;;;11.10;99552.00;;;;5055183;28;20080;-65
2023/09/24 07:25:11;;;;;;;14.13;6.85;;;;;11.20;99557.00;;;;5054313;28;20045;-64
2023/09/24 07:27:37;;;;;;;11.82;5.93;;;;;11.40;99554.00;;;;5054954;28;20045;-66
2023/09/24 07:30:05;;;;;;;4.18;3.22;;;;;11.50;99566.00;;;;5054696;28;20055;-65
2023/09/24 07:32:33;;;;;;;5.85;3.80;;;;;11.50;99565.00;;;;5054871;28;20143;-65
2023/09/24 07:35:00;;;;;;;9.23;5.00;;;;;11.60;99573.00;;;;5052806;28;20387;-65
2023/09/24 07:37:26;;;;;;;10.77;6.10;;;;;11.70;99566.00;;;;5054593;28;20124;-64
2023/09/24 07:39:53;;;;;;;4.10;3.13;;;;;11.80;99571.00;;;;5054517;28;20051;-65
2023/09/24 07:42:20;;;;;;;7.93;3.55;;;;;12.00;99571.00;;;;5054555;28;20073;-64
2023/09/24 07:44:47;;;;;;;8.60;4.15;;;;;12.10;99572.00;;;;5052573;28;20048;-64
2023/09/24 07:47:14;;;;;;;7.57;4.47;;;;;12.30;99572.00;;;;5054328;28;20056;-65
2023/09/24 07:49:42;;;;;;;8.63;4.07;;;;;12.40;99576.00;;;;5054373;28;20087;-65
2023/09/24 07:52:09;;;;;;;4.32;2.97;;;;;12.50;99578.00;;;;5054365;28;20051;-65
2023/09/24 07:54:35;;;;;;;4.45;3.28;;;;;12.60;99576.00;;;;5053689;28;20455;-64
2023/09/24 07:57:02;;;;;;;6.60;5.13;;;;;12.70;99573.00;;;;5054305;28;20045;-64
2023/09/24 07:59:29;;;;;;;7.43;5.22;;;;;12.80;99577.00;;;;5054238;28;20036;-65
2023/09/24 08:01:56;;;;;;;9.90;5.10;;;;;12.90;99576.00;;;;5052778;28;20091;-65
2023/09/24 08:04:23;;;;;;;4.60;3.10;;;;;13.00;99573.00;;;;5053463;28;20585;-66
2023/09/24 08:06:50;;;;;;;5.47;3.70;;;;;13.10;99569.00;;;;5054221;28;20123;-65
2023/09/24 08:09:16;;;;;;;4.90;4.05;;;;;13.20;99572.00;;;;5054112;28;20068;-65
2023/09/24 08:11:52;;;;;;;5.95;3.67;;;;;13.30;99575.00;;;;5054205;28;20402;-66
2023/09/24 08:14:19;;;;;;;5.30;3.47;;;;;13.40;99579.00;;;;5053233;28;20124;-65
2023/09/24 08:16:46;;;;;;;6.72;3.28;;;;;13.50;99581.00;;;;5052815;28;20047;-65
2023/09/24 08:19:12;;;;;;;6.50;3.80;;;;;13.60;99590.00;;;;5052848;28;20041;-65
2023/09/24 08:21:39;;;;;;;6.25;4.03;;;;;13.70;99584.00;;;;5053859;28;20067;-66
2023/09/24 08:24:06;;;;;;;7.45;3.40;;;;;13.80;99581.00;;;;5051830;28;20071;-68
2023/09/24 08:26:33;;;;;;;4.20;2.78;;;;;13.90;99583.00;;;;5052369;28;20099;-67
2023/09/24 08:29:02;;;;;;;6.97;3.20;;;;;13.90;99580.00;;;;5053506;28;20120;-67
2023/09/24 08:31:30;;;;;;;7.18;3.45;;;;;14.00;99584.00;;;;5052404;28;20095;-67
2023/09/24 08:33:57;;;;;;;6.10;3.50;;;;;14.10;99594.00;;;;5053208;28;20494;-67
2023/09/24 08:36:24;;;;;;;5.78;3.42;;;;;14.20;99594.00;;;;5053346;28;20119;-68
2023/09/24 08:38:50;;;;;;;3.97;3.42;;;;;14.30;99593.00;;;;5053539;28;20053;-67
2023/09/24 08:41:17;;;;;;;5.38;3.15;;;;;14.40;99607.00;;;;5053399;28;20124;-67
2023/09/24 08:43:44;;;;;;;7.18;4.10;;;;;14.50;99592.00;;;;5052937;28;20055;-67
2023/09/24 08:46:11;;;;;;;4.70;3.28;;;;;14.60;99588.00;;;;5053231;28;20072;-67
2023/09/24 08:48:41;;;;;;;6.30;3.17;;;;;14.70;99592.00;;;;5052150;28;20048;-67
2023/09/24 08:51:09;;;;;;;5.80;3.20;;;;;14.80;99587.00;;;;5053093;28;20045;-68
2023/09/24 08:53:37;;;;;;;4.95;2.80;;;;;14.90;99584.00;;;;5052472;28;20044;-67
2023/09/24 08:56:04;;;;;;;6.20;2.63;;;;;15.10;99586.00;;;;5053219;28;20468;-66
2023/09/24 08:58:31;;;;;;;3.85;2.45;;;;;15.20;99588.00;;;;5052079;28;20043;-66
2023/09/24 09:00:59;;;;;;;2.63;2.10;;;;;15.30;99589.00;;;;5052720;28;20226;-65
2023/09/24 09:03:27;;;;;;;4.55;2.70;;;;;15.40;99590.00;;;;5052920;28;20080;-66
2023/09/24 09:05:54;;;;;;;6.70;3.28;;;;;15.50;99595.00;;;;5051467;28;20060;-66
2023/09/24 09:08:21;;;;;;;4.45;2.40;;;;;15.70;99591.00;;;;5053001;28;20435;-66
2023/09/24 09:10:50;;;;;;;3.58;2.25;;;;;15.60;99590.00;;;;5051766;28;20083;-66
2023/09/24 09:13:18;;;;;;;4.93;2.50;;;;;15.80;99589.00;;;;5051141;28;20115;-66
2023/09/24 09:15:46;;;;;;;4.18;2.33;;;;;15.90;99588.00;;;;5051921;28;20041;-66
2023/09/24 09:18:26;;;;;;;4.88;2.92;;;;;16.00;99591.00;;;;5052788;28;20049;-67
2023/09/24 09:21:00;;;;;;;3.90;2.35;;;;;16.00;99583.00;;;;5052662;28;20363;-67
2023/09/24 09:23:36;;;;;;;6.10;1.77;;;;;16.10;99577.00;;;;5052311;28;20098;-67
2023/09/24 09:26:05;;;;;;;2.28;1.98;;;;;16.20;99576.00;;;;5052405;28;20041;-66
2023/09/24 09:28:34;;;;;;;3.92;1.98;;;;;16.30;99579.00;;;;5052515;28;20089;-66
2023/09/24 09:31:04;;;;;;;3.58;2.10;;;;;16.50;99585.00;;;;5052423;28;20084;-69
2023/09/24 09:33:34;;;;;;;4.95;2.10;;;;;16.60;99570.00;;;;5051990;28;20047;-65
2023/09/24 09:36:02;;;;;;;5.55;2.50;;;;;16.80;99574.00;;;;5052472;28;20083;-64
2023/09/24 09:38:30;;;;;;;4.28;2.15;;;;;16.90;99565.00;;;;5051169;28;20155;-64
2023/09/24 09:40:58;;;;;;;6.32;2.15;;;;;17.00;99573.00;;;;5051010;28;20044;-64
2023/09/24 09:43:27;;;;;;;4.18;1.50;;;;;17.10;99568.00;;;;5051871;28;20072;-65
2023/09/24 09:45:55;;;;;;;5.35;1.75;;;;;17.10;99564.00;;;;5052013;28;20065;-64
2023/09/24 09:48:27;;;;;;;3.33;1.70;;;;;17.20;99554.00;;;;5052067;28;20175;-64
2023/09/24 09:50:59;;;;;;;6.25;1.98;;;;;17.40;99552.00;;;;5050870;28;20493;-65
2023/09/24 09:53:31;;;;;;;3.50;1.60;;;;;17.50;99551.00;;;;5051857;28;20087;-65
2023/09/24 09:56:00;;;;;;;2.60;1.38;;;;;17.60;99546.00;;;;5050611;28;20055;-65
2023/09/24 09:58:29;;;;;;;2.85;1.30;;;;;17.70;99553.00;;;;5052079;28;20080;-65
2023/09/24 10:00:57;;;;;;;3.67;2.03;;;;;17.80;99548.00;;;;5051947;28;20073;-64
2023/09/24 10:03:25;;;;;;;11.73;8.45;;;;;18.00;99546.00;;;;5051881;28;20493;-65
2023/09/24 10:05:53;;;;;;;2.60;1.48;;;;;18.00;99543.00;;;;5051616;28;20227;-65
2023/09/24 10:08:39;;;;;;;4.18;1.20;;;;;18.10;99543.00;;;;5051849;28;20118;-65
2023/09/24 10:11:08;;;;;;;4.47;2.63;;;;;18.20;99539.00;;;;5051137;28;20053;-65
2023/09/24 10:13:48;;;;;;;4.07;1.40;;;;;18.40;99545.00;;;;5051285;28;20048;-65
2023/09/24 10:16:39;;;;;;;2.95;1.48;;;;;18.50;99538.00;;;;5051995;28;20075;-65
2023/09/24 10:19:08;;;;;;;5.28;1.50;;;;;18.40;99534.00;;;;5050732;28;20470;-64
2023/09/24 10:21:40;;;;;;;1.45;1.27;;;;;18.60;99531.00;;;;5051929;28;20051;-65
2023/09/24 10:24:09;;;;;;;2.70;1.17;;;;;18.60;99526.00;;;;5051105;28;20048;-65
2023/09/24 10:26:54;;;;;;;3.47;1.50;;;;;18.60;99515.00;;;;5055018;28;20040;-65
2023/09/24 10:29:55;;;;;;;4.85;1.38;;;;;18.70;99516.00;;;;5055798;28;20051;-65
2023/09/24 10:32:23;;;;;;;2.83;0.95;;;;;18.80;99504.00;;;;5054571;28;20703;-65
2023/09/24 10:34:59;;;;;;;1.55;1.40;;;;;18.90;99509.00;;;;5055316;28;20041;-65
2023/09/24 10:37:30;;;;;;;4.25;1.30;;;;;19.00;99501.00;;;;5055883;28;20044;-65
2023/09/24 10:40:04;;;;;;;3.78;1.10;;;;;18.90;99502.00;;;;5055684;28;20426;-65
2023/09/24 10:42:37;;;;;;;1.98;1.08;;;;;19.10;99500.00;;;;5054389;28;20119;-65
2023/09/24 10:45:06;;;;;;;1.92;1.10;;;;;19.20;99503.00;;;;5054812;28;20073;-65
2023/09/24 10:47:36;;;;;;;1.88;1.40;;;;;19.20;99496.00;;;;5055626;28;20444;-65
2023/09/24 10:50:03;;;;;;;3.83;1.45;;;;;19.20;99501.00;;;;5055295;28;20049;-65
2023/09/24 10:52:52;;;;;;;3.55;2.10;;;;;19.20;99492.00;;;;5055287;28;20448;-65
2023/09/24 10:55:31;;;;;;;3.33;1.30;;;;;19.20;99492.00;;;;5053473;28;20459;-65
2023/09/24 10:58:02;;;;;;;1.73;1.08;;;;;19.30;99485.00;;;;5055226;28;20049;-65
2023/09/24 11:00:30;;;;;;;2.10;1.00;;;;;19.30;99494.00;;;;5054042;28;20132;-65
2023/09/24 11:02:59;;;;;;;2.50;1.13;;;;;19.40;99496.00;;;;5054061;28;20339;-65
2023/09/24 11:05:27;;;;;;;1.52;1.05;;;;;19.60;99492.00;;;;5054549;28;20045;-65
2023/09/24 11:07:55;;;;;;;1.52;0.85;;;;;19.60;99485.00;;;;5055431;28;20517;-65
2023/09/24 11:10:23;;;;;;;3.40;1.30;;;;;19.70;99492.00;;;;5055115;28;20390;-65
2023/09/24 11:12:53;;;;;;;1.65;1.10;;;;;19.70;99495.00;;;;5055360;28;20056;-65
2023/09/24 11:15:23;;;;;;;1.65;1.10;;;;;19.80;99491.00;;;;5054209;28;20048;-65
2023/09/24 11:17:51;;;;;;;3.03;1.35;;;;;19.70;99491.00;;;;5054992;28;20049;-65
2023/09/24 11:20:20;;;;;;;14.02;9.98;;;;;19.90;99487.00;;;;5055004;28;20044;-66
2023/09/24 11:23:16;;;;;;;2.50;1.40;;;;;20.10;99493.00;;;;5054967;28;20052;-65
2023/09/24 11:25:47;;;;;;;1.48;1.13;;;;;20.20;99493.00;;;;5049621;28;20069;-65
2023/09/24 11:28:14;;;;;;;1.63;1.20;;;;;20.20;99489.00;;;;5054861;28;20076;-65
2023/09/24 11:30:50;;;;;;;1.65;1.10;;;;;20.40;99483.00;;;;5053711;28;20120;-65
2023/09/24 11:33:22;;;;;;;3.33;1.45;;;;;20.40;99483.00;;;;5054731;28;20071;-66
2023/09/24 11:35:52;;;;;;;2.22;1.33;;;;;20.30;99480.00;;;;5054335;28;20044;-65
2023/09/24 11:38:33;;;;;;;1.73;1.40;;;;;20.30;99487.00;;;;5052613;28;20239;-65
2023/09/24 11:41:07;;;;;;;1.85;1.48;;;;;20.40;99482.00;;;;5037073;28;20049;-65
2023/09/24 11:43:35;;;;;;;1.95;1.40;;;;;20.50;99475.00;;;;5054315;28;20063;-65
2023/09/24 11:46:02;;;;;;;2.35;1.55;;;;;20.60;99480.00;;;;5054586;28;20040;-65
2023/09/24 11:48:29;;;;;;;3.85;1.40;;;;;20.70;99468.00;;;;5054482;28;20045;-65
2023/09/24 11:51:06;;;;;;;1.58;1.30;;;;;20.70;99469.00;;;;5054492;28;20383;-65
2023/09/24 11:53:32;;;;;;;3.45;1.50;;;;;20.60;99464.00;;;;5054114;28;20048;-65
2023/09/24 11:55:59;;;;;;;3.90;1.70;;;;;20.70;99468.00;;;;5054141;28;20115;-65
2023/09/24 11:58:27;;;;;;;2.30;1.50;;;;;20.80;99462.00;;;;5054276;28;20111;-65
2023/09/24 12:00:55;;;;;;;2.00;1.30;;;;;20.80;99468.00;;;;5054160;28;20142;-65
2023/09/24 12:03:23;;;;;;;2.03;1.27;;;;;20.60;99470.00;;;;5053951;28;20464;-65
2023/09/24 12:05:51;;;;;;;3.85;1.58;;;;;20.60;99455.00;;;;5053800;28;20060;-65
2023/09/24 12:08:17;;;;;;;2.65;1.50;;;;;20.70;99453.00;;;;5054120;28;20056;-65
2023/09/24 12:10:50;;;;;;;2.90;1.55;;;;;20.70;99443.00;;;;5052999;28;20051;-66
2023/09/24 12:13:18;;;;;;;1.73;1.30;;;;;20.80;99454.00;;;;5054676;28;20052;-65
2023/09/24 12:15:45;;;;;;;2.33;1.40;;;;;20.80;99443.00;;;;5052306;28;20037;-65
2023/09/24 12:18:12;;;;;;;3.20;1.80;;;;;21.00;99440.00;;;;5054047;28;20044;-65
2023/09/24 12:20:40;;;;;;;3.28;1.70;;;;;21.10;99449.00;;;;5053968;28;20409;-65
2023/09/24 12:23:08;;;;;;;2.53;1.58;;;;;20.90;99437.00;;;;5054144;28;20096;-65
2023/09/24 12:25:36;;;;;;;2.30;1.63;;;;;20.90;99444.00;;;;5053819;28;20537;-65
2023/09/24 12:28:09;;;;;;;2.47;1.92;;;;;20.90;99446.00;;;;5053748;28;20049;-65